Merritt, Washington
Current Conditions -  °F | °C
As of 9:55 PM on Wednesday 28 Jan 2015 (Local Time) from KEAT Reporting Station
Overcast Overcast  
Wind Chill: 35°   Ceiling: 500
Heat Index: 35°   Visibility: 10mi
Dew Point: 31°   Wind: 0mph
Humidity: 85%   Direction: NA
Pressure: 30.49"   Gusts: NA
Location:  47.7866°N, 120.856°W
Report Text: KEAT 290555Z AUTO 00000KT 10SM OVC005 02/M01 A3049 RMK AO2 SLP336 T00171006 10022 20011 51008
Loading
Personal Weather Stations






























Interactive Weather Map New forecast layout! Learn more

10-Day Weather Forecast

Advertisements
Track Severe Weather on mobile